Time;durP1;ratioP1;P1;durP2;ratioP2;P2;SDS_P1;SDS_P2;PMS_P1;PMS_P2;Temp;Humidity;BMP_temperature;BMP_pressure;BME280_temperature;BME280_humidity;BME280_pressure;Samples;Min_cycle;Max_cycle;Signal;HPM_P1;HPM_P2
2023/11/16 00:02:38;;;;;;;2.45;1.15;;;;;;;;;;4977425;28;20090;-56
2023/11/16 00:05:32;;;;;;;5.15;1.30;;;;;;;;;;4980059;28;20027;-55
2023/11/16 00:08:20;;;;;;;7.13;1.55;;;;;;;;;;4978983;28;20027;-58
2023/11/16 00:11:07;;;;;;;2.20;1.08;;;;;;;;;;4978504;28;20041;-58
2023/11/16 00:13:47;;;;;;;;;;;;;;;;;;;;;
2023/11/16 00:16:23;;;;;;;2.07;0.90;;;;;;;;;;4973340;28;20133;-57
2023/11/16 00:19:02;;;;;;;3.80;0.93;;;;;;;;;;4990699;28;20050;-58
2023/11/16 00:21:50;;;;;;;3.00;1.20;;;;;;;;;;4977800;28;20077;-57
2023/11/16 00:24:38;;;;;;;3.35;1.15;;;;;;;;;;4967542;28;20042;-58
2023/11/16 00:27:33;;;;;;;6.60;1.30;;;;;;;;;;4977122;28;20035;-57
2023/11/16 00:33:29;;;;;;;8.93;1.85;;;;;;;;;;4923981;29;20100;-58
2023/11/16 00:36:25;;;;;;;3.22;1.20;;;;;;;;;;4936570;28;20059;-57
2023/11/16 00:39:00;;;;;;;2.00;1.13;;;;;;;;;;4978379;28;20034;-57
2023/11/16 00:41:59;;;;;;;4.05;1.65;;;;;;;;;;4976747;28;20088;-55
2023/11/16 00:45:00;;;;;;;2.80;1.05;;;;;;;;;;4977183;28;20046;-58
2023/11/16 00:47:44;;;;;;;2.88;1.30;;;;;;;;;;4976686;28;20326;-58
2023/11/16 00:50:17;;;;;;;4.55;1.48;;;;;;;;;;4975537;28;20342;-58
2023/11/16 00:52:53;;;;;;;5.10;1.17;;;;;;;;;;4976315;28;20037;-58
2023/11/16 00:55:21;;;;;;;2.10;1.00;;;;;;;;;;4074407;28;26595485;-56
2023/11/16 00:58:08;;;;;;;2.47;1.15;;;;;;;;;;4975566;28;20356;-58
2023/11/16 01:01:04;;;;;;;;;;;;;;;;;;;;;
2023/11/16 01:03:49;;;;;;;2.88;1.02;;;;;;;;;;4916862;29;20111;-57
2023/11/16 01:06:15;;;;;;;3.78;1.60;;;;;;;;;;4916604;29;20040;-57
2023/11/16 01:08:50;;;;;;;4.15;0.90;;;;;;;;;;4919845;29;20040;-58
2023/11/16 01:14:51;;;;;;;;;;;;;;;;;;;;;
2023/11/16 01:20:36;;;;;;;2.70;0.70;;;;;;;;;;4996388;28;20048;-58
2023/11/16 01:26:13;;;;;;;5.50;1.27;;;;;;;;;;4981002;28;20073;-58
2023/11/16 01:28:45;;;;;;;4.45;0.90;;;;;;;;;;4983182;28;20058;-57
2023/11/16 01:31:30;;;;;;;4.38;1.33;;;;;;;;;;4989570;28;20092;-57
2023/11/16 01:34:10;;;;;;;3.58;0.93;;;;;;;;;;4978960;28;20070;-57
2023/11/16 01:37:11;;;;;;;4.68;1.42;;;;;;;;;;4980781;28;20042;-58
2023/11/16 01:40:12;;;;;;;2.22;0.82;;;;;;;;;;4955605;28;20107;-58
2023/11/16 01:42:47;;;;;;;3.55;0.80;;;;;;;;;;4920593;29;20099;-58
2023/11/16 01:45:41;;;;;;;3.72;1.40;;;;;;;;;;4995879;28;20031;-58
2023/11/16 01:48:33;;;;;;;4.30;1.52;;;;;;;;;;4964897;28;20031;-58
2023/11/16 01:51:14;;;;;;;4.55;1.08;;;;;;;;;;4981159;28;20389;-58
2023/11/16 01:54:09;;;;;;;2.43;1.20;;;;;;;;;;4981996;28;20031;-59
2023/11/16 01:59:56;;;;;;;3.70;1.50;;;;;;;;;;4959895;29;20054;-58
2023/11/16 02:05:37;;;;;;;3.20;1.10;;;;;;;;;;4971968;28;20053;-58
2023/11/16 02:08:11;;;;;;;1.42;0.60;;;;;;;;;;4986039;28;20038;-58
2023/11/16 02:11:10;;;;;;;;;;;;;;;;;;;;;
2023/11/16 02:13:47;;;;;;;2.30;1.05;;;;;;;;;;4961805;28;20102;-58
2023/11/16 02:16:16;;;;;;;9.85;1.73;;;;;;;;;;4975085;28;20097;-57
2023/11/16 02:19:03;;;;;;;5.05;1.40;;;;;;;;;;4978285;28;20054;-58
2023/11/16 02:24:30;;;;;;;3.22;1.35;;;;;;;;;;4963826;28;20049;-57
2023/11/16 02:27:06;;;;;;;2.70;1.30;;;;;;;;;;4980124;28;20034;-57
2023/11/16 02:30:04;;;;;;;;;;;;;;;;;;;;;
2023/11/16 02:32:43;;;;;;;1.98;0.90;;;;;;;;;;4980574;28;20535;-58
2023/11/16 02:38:43;;;;;;;3.17;1.15;;;;;;;;;;4974991;28;20042;-58
2023/11/16 02:41:15;;;;;;;2.30;1.00;;;;;;;;;;4980739;28;20031;-57
2023/11/16 02:43:46;;;;;;;4.90;1.33;;;;;;;;;;4982398;28;20054;-58
2023/11/16 02:46:34;;;;;;;3.00;1.25;;;;;;;;;;4978382;28;20035;-58
2023/11/16 02:49:11;;;;;;;6.18;1.42;;;;;;;;;;4981909;28;20070;-58
2023/11/16 02:51:50;;;;;;;1.58;0.70;;;;;;;;;;4979333;28;20034;-58
2023/11/16 02:54:35;;;;;;;3.85;1.52;;;;;;;;;;4996772;28;20102;-58
2023/11/16 02:57:14;;;;;;;2.25;0.98;;;;;;;;;;4981478;28;20045;-57
2023/11/16 03:00:00;;;;;;;2.97;1.33;;;;;;;;;;4972672;28;20110;-56
2023/11/16 03:02:40;;;;;;;4.13;1.73;;;;;;;;;;4980061;28;20039;-58
2023/11/16 03:05:21;;;;;;;2.55;0.88;;;;;;;;;;4981800;28;20054;-58
2023/11/16 03:08:06;;;;;;;5.85;1.02;;;;;;;;;;4986514;28;20045;-58
2023/11/16 03:10:54;;;;;;;4.47;1.50;;;;;;;;;;4977036;28;20488;-58
2023/11/16 03:13:30;;;;;;;4.65;1.33;;;;;;;;;;4980756;28;20090;-58
2023/11/16 03:19:09;;;;;;;2.40;1.02;;;;;;;;;;4995118;28;20046;-58
2023/11/16 03:21:57;;;;;;;2.47;0.82;;;;;;;;;;4987911;28;20027;-58
2023/11/16 03:24:40;;;;;;;4.43;1.67;;;;;;;;;;4980841;28;20272;-58
2023/11/16 03:27:48;;;;;;;2.13;0.77;;;;;;;;;;4980747;28;20552;-59
2023/11/16 03:30:22;;;;;;;4.47;0.98;;;;;;;;;;4931564;28;20034;-58
2023/11/16 03:33:12;;;;;;;5.60;1.08;;;;;;;;;;4981461;28;20428;-58
2023/11/16 03:42:10;;;;;;;4.88;1.20;;;;;;;;;;4980783;28;20058;-58
2023/11/16 03:44:46;;;;;;;3.97;1.35;;;;;;;;;;4980493;28;20031;-58
2023/11/16 03:47:22;;;;;;;2.85;0.98;;;;;;;;;;4977504;28;20039;-58
2023/11/16 03:50:04;;;;;;;4.85;1.20;;;;;;;;;;4976883;28;20103;-57
2023/11/16 03:53:02;;;;;;;3.75;1.10;;;;;;;;;;4977999;28;20054;-58
2023/11/16 03:55:32;;;;;;;3.22;1.00;;;;;;;;;;4937890;29;20055;-58
2023/11/16 03:58:25;;;;;;;3.70;0.73;;;;;;;;;;4945946;29;20039;-58
2023/11/16 04:01:28;;;;;;;;;;;;;;;;;;;;;
2023/11/16 04:04:01;;;;;;;2.65;1.17;;;;;;;;;;4977445;28;20110;-58
2023/11/16 04:06:37;;;;;;;3.08;1.10;;;;;;;;;;4978494;28;20373;-58
2023/11/16 04:09:42;;;;;;;1.65;0.68;;;;;;;;;;4994971;28;20023;-58
2023/11/16 04:12:47;;;;;;;2.70;0.88;;;;;;;;;;4981202;28;20045;-58
2023/11/16 04:15:29;;;;;;;1.67;0.82;;;;;;;;;;4918458;29;20036;-58
2023/11/16 04:18:13;;;;;;;3.85;0.98;;;;;;;;;;4922780;29;20051;-57
2023/11/16 04:24:37;;;;;;;2.03;1.10;;;;;;;;;;4945256;28;20520;-58
2023/11/16 04:30:22;;;;;;;2.53;1.10;;;;;;;;;;4977365;28;20101;-59
2023/11/16 04:35:46;;;;;;;4.03;1.38;;;;;;;;;;4979052;28;20041;-58
2023/11/16 04:38:36;;;;;;;7.35;1.30;;;;;;;;;;4978002;28;20030;-58
2023/11/16 04:44:02;;;;;;;2.70;1.33;;;;;;;;;;4968088;28;20086;-58
2023/11/16 04:46:46;;;;;;;2.78;1.10;;;;;;;;;;4976062;28;20064;-58
2023/11/16 04:49:16;;;;;;;5.35;1.10;;;;;;;;;;4960607;28;20486;-58
2023/11/16 04:52:00;;;;;;;2.22;1.08;;;;;;;;;;4974411;28;20469;-58
2023/11/16 04:54:34;;;;;;;2.05;1.25;;;;;;;;;;4982175;28;20022;-58
2023/11/16 04:57:13;;;;;;;3.03;1.30;;;;;;;;;;4981283;28;20030;-57
2023/11/16 04:59:49;;;;;;;3.90;1.23;;;;;;;;;;4978092;28;20074;-58
2023/11/16 05:02:18;;;;;;;4.40;1.27;;;;;;;;;;4973649;28;20054;-58
2023/11/16 05:04:51;;;;;;;6.90;1.38;;;;;;;;;;4954871;29;20497;-58
2023/11/16 05:13:20;;;;;;;5.05;1.52;;;;;;;;;;4949078;28;20035;-56
2023/11/16 05:15:53;;;;;;;4.07;1.15;;;;;;;;;;4976980;28;20034;-56
2023/11/16 05:18:41;;;;;;;2.95;1.52;;;;;;;;;;4979520;28;20431;-58
2023/11/16 05:21:18;;;;;;;3.55;0.75;;;;;;;;;;4978307;28;20019;-58
2023/11/16 05:24:16;;;;;;;4.07;2.03;;;;;;;;;;4969691;28;20055;-56
2023/11/16 05:27:02;;;;;;;;;;;;;;;;;;;;;
2023/11/16 05:32:28;;;;;;;1.65;0.77;;;;;;;;;;4976516;28;20555;-56
2023/11/16 05:35:01;;;;;;;1.90;1.20;;;;;;;;;;4974752;28;20399;-58
2023/11/16 05:37:57;;;;;;;3.45;1.25;;;;;;;;;;4963859;28;20622;-57
2023/11/16 05:41:25;;;;;;;;;;;;;;;;;;;;;
2023/11/16 05:44:09;;;;;;;6.55;1.35;;;;;;;;;;4945677;28;20421;-57
2023/11/16 05:46:38;;;;;;;10.07;2.30;;;;;;;;;;4973740;28;20039;-57
2023/11/16 05:49:30;;;;;;;3.38;1.48;;;;;;;;;;4972926;28;20098;-57
2023/11/16 05:52:08;;;;;;;2.90;1.02;;;;;;;;;;4962357;28;20251;-58
2023/11/16 05:55:06;;;;;;;7.18;1.30;;;;;;;;;;4974945;28;20041;-57
2023/11/16 05:58:02;;;;;;;2.90;0.95;;;;;;;;;;4974451;28;20039;-56
2023/11/16 06:00:56;;;;;;;2.70;1.23;;;;;;;;;;4952478;28;20046;-56
2023/11/16 06:07:10;;;;;;;3.97;1.30;;;;;;;;;;4957168;28;20097;-58
2023/11/16 06:09:56;;;;;;;10.05;1.58;;;;;;;;;;4969984;28;20101;-58
2023/11/16 06:12:32;;;;;;;5.95;0.88;;;;;;;;;;4974472;28;20065;-58
2023/11/16 06:18:26;;;;;;;2.70;1.25;;;;;;;;;;4938300;28;20182;-59
2023/11/16 06:21:12;;;;;;;1.73;0.90;;;;;;;;;;4967269;28;20069;-57
2023/11/16 06:24:01;;;;;;;4.47;1.35;;;;;;;;;;4973934;28;20388;-57
2023/11/16 06:26:55;;;;;;;2.78;1.38;;;;;;;;;;4973782;28;20027;-57
2023/11/16 06:29:38;;;;;;;3.92;1.00;;;;;;;;;;4968529;28;20043;-55
2023/11/16 06:32:07;;;;;;;2.85;1.23;;;;;;;;;;4969553;28;20031;-56
2023/11/16 06:35:11;;;;;;;2.00;1.10;;;;;;;;;;4973274;28;20106;-58
2023/11/16 06:40:45;;;;;;;1.92;1.00;;;;;;;;;;4970936;28;20035;-58
2023/11/16 06:43:12;;;;;;;5.38;1.30;;;;;;;;;;4979355;28;20097;-58
2023/11/16 06:46:28;;;;;;;9.57;1.80;;;;;;;;;;4970136;28;20034;-57
2023/11/16 06:52:15;;;;;;;;;;;;;;;;;;;;;
2023/11/16 06:55:10;;;;;;;1.73;0.88;;;;;;;;;;4862168;29;20045;-58
2023/11/16 06:57:49;;;;;;;3.55;1.58;;;;;;;;;;4874818;29;20081;-58
2023/11/16 07:03:46;;;;;;;8.60;1.85;;;;;;;;;;4951085;28;20040;-56
2023/11/16 07:06:43;;;;;;;2.17;1.23;;;;;;;;;;4966890;28;20545;-59
2023/11/16 07:16:13;;;;;;;4.30;1.55;;;;;;;;;;4950598;28;20196;-58
2023/11/16 07:18:49;;;;;;;2.75;1.90;;;;;;;;;;4971339;28;20130;-59
2023/11/16 07:21:45;;;;;;;5.20;1.67;;;;;;;;;;4953162;28;20331;-58
2023/11/16 07:24:29;;;;;;;4.75;1.58;;;;;;;;;;4974411;28;20026;-57
2023/11/16 07:27:10;;;;;;;2.97;1.08;;;;;;;;;;4933517;28;20047;-59
2023/11/16 07:30:03;;;;;;;6.22;2.05;;;;;;;;;;4932727;29;20094;-58
2023/11/16 07:32:37;;;;;;;2.08;1.10;;;;;;;;;;4974462;28;20484;-58
2023/11/16 07:38:11;;;;;;;2.80;1.67;;;;;;;;;;4963364;28;20088;-58
2023/11/16 07:41:08;;;;;;;3.05;1.45;;;;;;;;;;4973593;28;20034;-56
2023/11/16 07:47:18;;;;;;;4.63;1.58;;;;;;;;;;4969252;28;20411;-56
2023/11/16 07:50:18;;;;;;;2.90;1.30;;;;;;;;;;4988558;28;20100;-59
2023/11/16 07:53:00;;;;;;;3.47;1.55;;;;;;;;;;4958685;28;20054;-57
2023/11/16 07:55:50;;;;;;;2.80;1.17;;;;;;;;;;4973390;28;20587;-58
2023/11/16 07:58:31;;;;;;;2.70;1.25;;;;;;;;;;4958388;28;20050;-58
2023/11/16 08:04:20;;;;;;;3.08;1.20;;;;;;;;;;4964371;28;20405;-56
2023/11/16 08:06:54;;;;;;;4.38;1.55;;;;;;;;;;4968071;28;20031;-58
2023/11/16 08:09:36;;;;;;;4.10;1.35;;;;;;;;;;4987390;28;20050;-58
2023/11/16 08:12:25;;;;;;;;;;;;;;;;;;;;;
2023/11/16 08:18:25;;;;;;;5.93;1.33;;;;;;;;;;4952692;28;20139;-57
2023/11/16 08:21:10;;;;;;;4.18;1.48;;;;;;;;;;4970980;28;20125;-58
2023/11/16 08:23:42;;;;;;;3.28;1.13;;;;;;;;;;4961853;28;20031;-55
2023/11/16 08:32:30;;;;;;;3.10;1.63;;;;;;;;;;4909307;29;20416;-58
2023/11/16 08:35:03;;;;;;;7.05;1.70;;;;;;;;;;4966277;28;20035;-58
2023/11/16 08:38:14;;;;;;;3.47;1.60;;;;;;;;;;4970931;28;20117;-57
2023/11/16 08:44:09;;;;;;;2.17;1.23;;;;;;;;;;4940018;28;20030;-57
2023/11/16 08:50:06;;;;;;;4.57;2.25;;;;;;;;;;4972903;28;20030;-58
2023/11/16 08:52:42;;;;;;;3.20;1.85;;;;;;;;;;4929437;29;20036;-57
2023/11/16 08:55:21;;;;;;;3.30;1.85;;;;;;;;;;4973520;28;20042;-58
2023/11/16 08:58:10;;;;;;;3.72;2.20;;;;;;;;;;4965345;28;20366;-58
2023/11/16 09:01:19;;;;;;;3.92;1.30;;;;;;;;;;4955734;28;20050;-58
2023/11/16 09:06:51;;;;;;;3.47;1.55;;;;;;;;;;4965931;28;20045;-57
2023/11/16 09:09:52;;;;;;;5.82;1.52;;;;;;;;;;4971655;28;20027;-58
2023/11/16 09:12:12;;;;;;;4.28;1.55;;;;;;;;;;4969542;28;20050;-56
2023/11/16 09:15:03;;;;;;;3.33;1.95;;;;;;;;;;4972194;28;20022;-59
2023/11/16 09:17:52;;;;;;;4.07;1.45;;;;;;;;;;4972365;28;20066;-55
2023/11/16 09:20:28;;;;;;;3.03;1.08;;;;;;;;;;4986138;28;20383;-56
2023/11/16 09:26:18;;;;;;;2.83;0.88;;;;;;;;;;4963922;28;20065;-56
2023/11/16 09:28:52;;;;;;;4.93;1.48;;;;;;;;;;4972150;28;20046;-57
2023/11/16 09:31:34;;;;;;;3.67;2.40;;;;;;;;;;4970048;28;20069;-56
2023/11/16 09:34:19;;;;;;;1.95;1.17;;;;;;;;;;4959968;28;20507;-54
2023/11/16 09:37:01;;;;;;;1.92;1.15;;;;;;;;;;4974727;28;20420;-55
2023/11/16 09:39:45;;;;;;;4.03;1.48;;;;;;;;;;4989889;28;20031;-56
2023/11/16 09:42:25;;;;;;;4.25;1.35;;;;;;;;;;4960240;28;20046;-56
2023/11/16 09:45:16;;;;;;;1.98;0.68;;;;;;;;;;4974352;28;20025;-57
2023/11/16 09:47:54;;;;;;;3.35;1.40;;;;;;;;;;4953306;29;20054;-56
2023/11/16 09:50:29;;;;;;;6.05;2.00;;;;;;;;;;4970079;28;20039;-56
2023/11/16 09:53:18;;;;;;;3.75;1.42;;;;;;;;;;4987974;28;20113;-57
2023/11/16 09:56:05;;;;;;;6.30;1.45;;;;;;;;;;4973214;28;20350;-56
2023/11/16 09:58:46;;;;;;;2.92;1.13;;;;;;;;;;4972782;28;20486;-56
2023/11/16 10:01:30;;;;;;;2.15;0.90;;;;;;;;;;4972432;28;20046;-57
2023/11/16 10:04:35;;;;;;;6.15;1.55;;;;;;;;;;4956986;28;20493;-54
2023/11/16 10:07:25;;;;;;;3.75;0.90;;;;;;;;;;4972818;28;20397;-55
2023/11/16 10:10:21;;;;;;;2.00;1.02;;;;;;;;;;4968606;28;20041;-57
2023/11/16 10:12:48;;;;;;;3.17;1.20;;;;;;;;;;4955542;28;20508;-56
2023/11/16 10:21:33;;;;;;;3.17;1.42;;;;;;;;;;4963321;28;20238;-56
2023/11/16 10:24:27;;;;;;;;;;;;;;;;;;;;;
2023/11/16 10:27:03;;;;;;;4.03;1.90;;;;;;;;;;4959068;28;20041;-57
2023/11/16 10:29:51;;;;;;;4.70;1.95;;;;;;;;;;4969206;28;20102;-57
2023/11/16 10:32:30;;;;;;;3.78;1.73;;;;;;;;;;4973714;28;20382;-56
2023/11/16 10:35:25;;;;;;;3.10;1.23;;;;;;;;;;4969935;28;20031;-56
2023/11/16 10:41:19;;;;;;;2.15;1.33;;;;;;;;;;4972751;28;20178;-58
2023/11/16 10:43:56;;;;;;;4.75;1.40;;;;;;;;;;4973678;28;20035;-58
2023/11/16 10:46:28;;;;;;;5.70;1.75;;;;;;;;;;4963626;28;20064;-58
2023/11/16 10:49:16;;;;;;;1.85;1.05;;;;;;;;;;4974920;28;20027;-58
2023/11/16 10:52:02;;;;;;;6.63;1.98;;;;;;;;;;4963525;28;20066;-58
2023/11/16 10:54:49;;;;;;;3.40;1.52;;;;;;;;;;4974631;28;20023;-57
2023/11/16 10:57:26;;;;;;;3.00;1.48;;;;;;;;;;4989677;28;20117;-58
2023/11/16 11:03:06;;;;;;;2.90;1.38;;;;;;;;;;4959547;28;20043;-58
2023/11/16 11:05:52;;;;;;;;;;;;;;;;;;;;;
2023/11/16 11:08:43;;;;;;;6.60;2.45;;;;;;;;;;4973694;28;20411;-57
2023/11/16 11:11:25;;;;;;;6.05;2.70;;;;;;;;;;4971201;28;20023;-58
2023/11/16 11:14:15;;;;;;;5.07;3.03;;;;;;;;;;4979598;28;20496;-60
2023/11/16 11:17:07;;;;;;;11.73;2.88;;;;;;;;;;4971476;28;20066;-58
2023/11/16 11:19:54;;;;;;;4.88;3.13;;;;;;;;;;4951748;28;20273;-59
2023/11/16 11:22:41;;;;;;;7.13;3.25;;;;;;;;;;4970655;28;20027;-58
2023/11/16 11:25:33;;;;;;;7.38;5.00;;;;;;;;;;4971294;28;20035;-58
2023/11/16 11:28:08;;;;;;;6.85;4.88;;;;;;;;;;4969091;28;20129;-59
2023/11/16 11:31:00;;;;;;;6.13;4.07;;;;;;;;;;4957328;28;20031;-58
2023/11/16 11:37:03;;;;;;;8.13;5.22;;;;;;;;;;4970109;28;20089;-58
2023/11/16 11:39:59;;;;;;;6.60;4.47;;;;;;;;;;4966281;28;20125;-58
2023/11/16 11:42:54;;;;;;;7.20;4.93;;;;;;;;;;4920723;28;20047;-59
2023/11/16 11:48:33;;;;;;;7.72;5.07;;;;;;;;;;4887091;29;20123;-58
2023/11/16 11:51:12;;;;;;;8.00;4.60;;;;;;;;;;4979430;28;20077;-58
2023/11/16 11:53:53;;;;;;;6.68;4.38;;;;;;;;;;4989990;28;20519;-58
2023/11/16 11:56:39;;;;;;;5.95;3.30;;;;;;;;;;4951886;29;20027;-58
2023/11/16 11:59:14;;;;;;;6.20;3.58;;;;;;;;;;4964124;28;20110;-58
2023/11/16 12:01:52;;;;;;;5.53;3.30;;;;;;;;;;4973111;28;20031;-58
2023/11/16 12:04:46;;;;;;;6.53;3.53;;;;;;;;;;4972435;28;20039;-58
2023/11/16 12:10:48;;;;;;;5.55;2.20;;;;;;;;;;4968917;28;20077;-58
2023/11/16 12:13:51;;;;;;;5.47;3.00;;;;;;;;;;4972854;28;20038;-59
2023/11/16 12:19:42;;;;;;;4.15;2.70;;;;;;;;;;4931865;29;20052;-58
2023/11/16 12:25:21;;;;;;;5.78;3.67;;;;;;;;;;4970022;28;20038;-57
2023/11/16 12:28:21;;;;;;;6.88;3.33;;;;;;;;;;4953353;28;20118;-58
2023/11/16 12:32:04;;;;;;;5.57;3.50;;;;;;;;;;4956614;28;20034;-58
2023/11/16 12:42:52;;;;;;;5.45;3.72;;;;;;;;;;4961696;28;20031;-57
2023/11/16 12:45:31;;;;;;;5.20;3.00;;;;;;;;;;4972659;28;20038;-57
2023/11/16 12:48:07;;;;;;;4.00;3.00;;;;;;;;;;4988012;28;20027;-57
2023/11/16 12:50:49;;;;;;;4.47;2.80;;;;;;;;;;4972092;28;20051;-57
2023/11/16 12:53:28;;;;;;;5.70;3.65;;;;;;;;;;4981006;28;20149;-56
2023/11/16 12:56:00;;;;;;;12.85;3.40;;;;;;;;;;4951061;29;20094;-57
2023/11/16 12:58:41;;;;;;;5.70;3.15;;;;;;;;;;4969349;28;20051;-57
2023/11/16 13:04:32;;;;;;;4.63;2.60;;;;;;;;;;4972448;28;20507;-58
2023/11/16 13:07:06;;;;;;;6.55;3.97;;;;;;;;;;4971361;28;20046;-58
2023/11/16 13:09:55;;;;;;;6.68;3.70;;;;;;;;;;4972429;28;20297;-57
2023/11/16 13:12:27;;;;;;;10.80;3.80;;;;;;;;;;4976750;28;20026;-58
2023/11/16 13:15:16;;;;;;;3.17;2.10;;;;;;;;;;4996411;28;20053;-58
2023/11/16 13:18:15;;;;;;;2.60;1.17;;;;;;;;;;4942166;29;20035;-58
2023/11/16 13:24:18;;;;;;;4.72;1.17;;;;;;;;;;4946962;28;20039;-58
2023/11/16 13:27:13;;;;;;;3.03;0.88;;;;;;;;;;4961156;28;20057;-58
2023/11/16 13:29:48;;;;;;;3.60;1.00;;;;;;;;;;4975715;28;20118;-58
2023/11/16 13:35:26;;;;;;;2.13;1.02;;;;;;;;;;4932729;28;20046;-57
2023/11/16 13:38:12;;;;;;;1.95;1.02;;;;;;;;;;4976464;28;20505;-57
2023/11/16 13:43:34;;;;;;;3.95;0.95;;;;;;;;;;4976677;28;20065;-58
2023/11/16 13:46:09;;;;;;;1.75;0.88;;;;;;;;;;4959457;28;20031;-57
2023/11/16 13:52:23;;;;;;;2.33;1.25;;;;;;;;;;4971780;28;20034;-58
2023/11/16 13:57:53;;;;;;;4.00;1.80;;;;;;;;;;4976406;28;20039;-57
2023/11/16 14:00:32;;;;;;;6.03;1.30;;;;;;;;;;4975158;28;20069;-58
2023/11/16 14:03:17;;;;;;;2.22;1.45;;;;;;;;;;4976143;28;20043;-57
2023/11/16 14:06:05;;;;;;;2.85;1.48;;;;;;;;;;4975435;28;20023;-59
2023/11/16 14:08:46;;;;;;;5.97;1.67;;;;;;;;;;4942645;28;20074;-58
2023/11/16 14:14:16;;;;;;;2.75;1.45;;;;;;;;;;4906292;28;20047;-58
2023/11/16 14:16:56;;;;;;;4.53;1.70;;;;;;;;;;4975616;28;20093;-58
2023/11/16 14:19:27;;;;;;;4.45;2.05;;;;;;;;;;4975454;28;20031;-58
2023/11/16 14:22:56;;;;;;;2.85;1.80;;;;;;;;;;4976660;28;20484;-58
2023/11/16 14:25:03;;;;;;;4.75;2.50;;;;;;;;;;4958402;28;20047;-58
2023/11/16 14:27:47;;;;;;;5.45;2.55;;;;;;;;;;4975477;28;20042;-58
2023/11/16 14:33:21;;;;;;;3.33;2.08;;;;;;;;;;4953698;29;20126;-58
2023/11/16 14:36:11;;;;;;;4.13;2.67;;;;;;;;;;4953837;29;20070;-58
2023/11/16 14:39:00;;;;;;;6.18;3.20;;;;;;;;;;4951956;29;20414;-58
2023/11/16 14:44:33;;;;;;;6.03;2.63;;;;;;;;;;4959195;28;20062;-58
2023/11/16 14:47:13;;;;;;;5.00;2.28;;;;;;;;;;4972054;28;20592;-58
2023/11/16 14:50:09;;;;;;;4.25;2.00;;;;;;;;;;4976259;28;20030;-57
2023/11/16 14:56:04;;;;;;;3.92;2.10;;;;;;;;;;4974533;28;20560;-58
2023/11/16 15:01:59;;;;;;;4.30;3.30;;;;;;;;;;4971578;28;20066;-58
2023/11/16 15:04:34;;;;;;;6.22;2.78;;;;;;;;;;4906540;29;20067;-58
2023/11/16 15:10:20;;;;;;;;;;;;;;;;;;;;;
2023/11/16 15:12:50;;;;;;;2.40;1.35;;;;;;;;;;4906824;29;19951;-58
2023/11/16 15:15:42;;;;;;;3.35;1.75;;;;;;;;;;4952136;28;20035;-58
2023/11/16 15:18:39;;;;;;;2.80;1.48;;;;;;;;;;4969579;28;20031;-58
2023/11/16 15:21:06;;;;;;;2.97;1.70;;;;;;;;;;4951363;28;20049;-58
2023/11/16 15:23:55;;;;;;;4.65;2.10;;;;;;;;;;4971954;28;20445;-57
2023/11/16 15:26:30;;;;;;;2.90;1.60;;;;;;;;;;4971023;28;20496;-57
2023/11/16 15:29:07;;;;;;;3.28;1.40;;;;;;;;;;4968009;28;20035;-59
2023/11/16 15:32:13;;;;;;;2.45;1.50;;;;;;;;;;4971118;28;20437;-58
2023/11/16 15:34:44;;;;;;;4.03;1.98;;;;;;;;;;4972209;28;20034;-58
2023/11/16 15:37:29;;;;;;;3.22;1.58;;;;;;;;;;4973227;28;20043;-57
2023/11/16 15:40:15;;;;;;;3.50;1.77;;;;;;;;;;4973550;28;20112;-61
2023/11/16 15:43:00;;;;;;;4.88;2.17;;;;;;;;;;4960525;28;20035;-60
2023/11/16 15:45:37;;;;;;;4.93;2.78;;;;;;;;;;4972014;28;20026;-60
2023/11/16 15:48:12;;;;;;;4.00;3.22;;;;;;;;;;4942549;28;20563;-60
2023/11/16 15:50:44;;;;;;;5.28;3.60;;;;;;;;;;4971669;28;20022;-60
2023/11/16 15:56:52;;;;;;;4.60;3.20;;;;;;;;;;4915377;29;20191;-60
2023/11/16 15:59:57;;;;;;;7.40;2.95;;;;;;;;;;4957758;28;20277;-60
2023/11/16 16:02:30;;;;;;;3.58;1.85;;;;;;;;;;4951522;28;20686;-60
2023/11/16 16:05:31;;;;;;;3.35;2.30;;;;;;;;;;4970798;28;20053;-60
2023/11/16 16:08:16;;;;;;;4.65;2.67;;;;;;;;;;4965160;28;20038;-60
2023/11/16 16:14:07;;;;;;;4.63;3.38;;;;;;;;;;4969079;28;20045;-60
2023/11/16 16:19:45;;;;;;;3.35;2.72;;;;;;;;;;4964441;28;20060;-60
2023/11/16 16:22:42;;;;;;;5.63;3.17;;;;;;;;;;4968912;28;20067;-60
2023/11/16 16:25:37;;;;;;;;;;;;;;;;;;;;;
2023/11/16 16:28:18;;;;;;;8.27;3.97;;;;;;;;;;4967623;28;20046;-60
2023/11/16 16:30:56;;;;;;;4.57;2.90;;;;;;;;;;4967197;28;20125;-60
2023/11/16 16:33:33;;;;;;;4.70;2.53;;;;;;;;;;4972132;28;20066;-60
2023/11/16 16:36:08;;;;;;;4.60;1.80;;;;;;;;;;4970731;28;20029;-60
2023/11/16 16:38:47;;;;;;;3.13;2.25;;;;;;;;;;4969593;28;20171;-60
2023/11/16 16:41:40;;;;;;;3.33;2.42;;;;;;;;;;4985644;28;20058;-60
2023/11/16 16:44:29;;;;;;;4.43;2.13;;;;;;;;;;4969278;28;20110;-60
2023/11/16 16:47:24;;;;;;;3.65;1.92;;;;;;;;;;4966795;28;20027;-60
2023/11/16 16:50:34;;;;;;;3.78;2.00;;;;;;;;;;4970049;28;20113;-60
2023/11/16 16:53:52;;;;;;;3.50;2.53;;;;;;;;;;4915700;29;20036;-60
2023/11/16 16:56:22;;;;;;;4.35;2.30;;;;;;;;;;4932181;28;20028;-60
2023/11/16 16:59:07;;;;;;;5.85;2.20;;;;;;;;;;4960675;28;20042;-60
2023/11/16 17:04:42;;;;;;;6.28;3.20;;;;;;;;;;4948524;28;20041;-61
2023/11/16 17:10:09;;;;;;;12.18;2.72;;;;;;;;;;4968713;28;20051;-60
2023/11/16 17:13:20;;;;;;;6.22;2.67;;;;;;;;;;4953101;28;20202;-60
2023/11/16 17:19:00;;;;;;;5.25;3.67;;;;;;;;;;4971119;28;20070;-60
2023/11/16 17:24:57;;;;;;;7.32;3.60;;;;;;;;;;4911740;29;20374;-60
2023/11/16 17:27:31;;;;;;;4.47;3.35;;;;;;;;;;4948399;28;20480;-60
2023/11/16 17:30:06;;;;;;;6.10;3.38;;;;;;;;;;4971693;28;20358;-60
2023/11/16 17:32:55;;;;;;;5.80;4.40;;;;;;;;;;4971325;28;20081;-60
2023/11/16 17:35:30;;;;;;;5.38;4.10;;;;;;;;;;4972493;28;20034;-60
2023/11/16 17:37:59;;;;;;;5.00;4.05;;;;;;;;;;4966854;28;20047;-60
2023/11/16 17:40:48;;;;;;;9.75;6.03;;;;;;;;;;4969242;28;20061;-60
2023/11/16 17:43:40;;;;;;;8.02;5.32;;;;;;;;;;4968129;28;20042;-61
2023/11/16 17:46:29;;;;;;;8.02;5.72;;;;;;;;;;4972155;28;20022;-60
2023/11/16 17:49:33;;;;;;;5.78;5.18;;;;;;;;;;4971563;28;20453;-60
2023/11/16 17:52:11;;;;;;;8.95;5.30;;;;;;;;;;4935624;28;20094;-60
2023/11/16 17:54:43;;;;;;;7.35;4.90;;;;;;;;;;4972099;28;20058;-60
2023/11/16 17:57:25;;;;;;;5.43;4.93;;;;;;;;;;4975961;28;20041;-60
2023/11/16 18:00:10;;;;;;;6.07;4.63;;;;;;;;;;4975626;28;20050;-60
2023/11/16 18:02:41;;;;;;;7.13;4.55;;;;;;;;;;4975698;28;20417;-60
2023/11/16 18:08:14;;;;;;;5.93;4.18;;;;;;;;;;4955622;29;20126;-61
2023/11/16 18:11:00;;;;;;;;;;;;;;;;;;;;;
2023/11/16 18:13:47;;;;;;;5.95;4.55;;;;;;;;;;4973243;28;20518;-59
2023/11/16 18:19:54;;;;;;;;;;;;;;;;;;;;;
2023/11/16 18:25:40;;;;;;;6.47;4.85;;;;;;;;;;4933241;28;20035;-59
2023/11/16 18:28:19;;;;;;;5.40;4.88;;;;;;;;;;4957789;28;20042;-59
2023/11/16 18:30:52;;;;;;;9.80;5.40;;;;;;;;;;4971652;28;20038;-60
2023/11/16 18:33:23;;;;;;;6.18;5.13;;;;;;;;;;4979799;28;20073;-59
2023/11/16 18:36:17;;;;;;;6.75;6.05;;;;;;;;;;4988957;28;20055;-59
2023/11/16 18:39:18;;;;;;;6.05;5.25;;;;;;;;;;4952682;28;20046;-59
2023/11/16 18:42:23;;;;;;;6.95;5.60;;;;;;;;;;4966947;28;20034;-59
2023/11/16 18:45:15;;;;;;;8.18;6.15;;;;;;;;;;4932378;29;20422;-59
2023/11/16 18:47:57;;;;;;;6.47;5.38;;;;;;;;;;4946366;28;20066;-59
2023/11/16 18:50:49;;;;;;;6.95;6.25;;;;;;;;;;4989369;28;20384;-59
2023/11/16 18:53:32;;;;;;;10.02;5.78;;;;;;;;;;4952840;28;20214;-59
2023/11/16 18:56:21;;;;;;;9.15;5.45;;;;;;;;;;4963317;28;20141;-59
2023/11/16 18:59:19;;;;;;;6.88;5.35;;;;;;;;;;4934899;29;20393;-59
2023/11/16 19:02:21;;;;;;;7.22;5.65;;;;;;;;;;4973968;28;20039;-59
2023/11/16 19:05:00;;;;;;;6.03;4.82;;;;;;;;;;4967897;28;20049;-59
2023/11/16 19:11:09;;;;;;;;;;;;;;;;;;;;;
2023/11/16 19:16:49;;;;;;;13.52;9.65;;;;;;;;;;4964053;28;20081;-59
2023/11/16 19:19:26;;;;;;;7.28;6.43;;;;;;;;;;4954905;28;20420;-59
2023/11/16 19:22:19;;;;;;;5.97;4.88;;;;;;;;;;4973783;28;20030;-58
2023/11/16 19:25:14;;;;;;;6.93;4.72;;;;;;;;;;4972392;28;20027;-59
2023/11/16 19:27:55;;;;;;;6.50;4.50;;;;;;;;;;4974514;28;20039;-58
2023/11/16 19:31:09;;;;;;;8.52;4.72;;;;;;;;;;4956091;28;20035;-59
2023/11/16 19:36:59;;;;;;;;;;;;;;;;;;;;;
2023/11/16 19:39:31;;;;;;;5.45;3.85;;;;;;;;;;4973560;28;20102;-58
2023/11/16 19:42:09;;;;;;;;;;;;;;;;;;;;;
2023/11/16 19:44:39;;;;;;;4.95;4.47;;;;;;;;;;4974389;28;20049;-59
2023/11/16 19:47:24;;;;;;;5.15;4.40;;;;;;;;;;4971130;28;20477;-58
2023/11/16 19:56:21;;;;;;;5.85;5.10;;;;;;;;;;4913772;28;20035;-58
2023/11/16 20:05:00;;;;;;;8.82;7.93;;;;;;;;;;4969417;28;20053;-58
2023/11/16 20:10:52;;;;;;;8.43;5.93;;;;;;;;;;4958936;28;20074;-57
2023/11/16 20:16:46;;;;;;;6.25;4.50;;;;;;;;;;4965764;28;20097;-58
2023/11/16 20:19:50;;;;;;;7.55;5.18;;;;;;;;;;4970113;28;20043;-58
2023/11/16 20:25:30;;;;;;;6.38;4.65;;;;;;;;;;4952151;28;20033;-58
2023/11/16 20:28:13;;;;;;;8.68;7.93;;;;;;;;;;4965110;28;20030;-59
2023/11/16 20:34:06;;;;;;;8.35;7.22;;;;;;;;;;4970335;28;20033;-58
2023/11/16 20:36:57;;;;;;;8.02;7.22;;;;;;;;;;4969347;28;20034;-58
2023/11/16 20:42:57;;;;;;;8.82;7.57;;;;;;;;;;4964290;28;20066;-58
2023/11/16 20:45:36;;;;;;;10.63;8.25;;;;;;;;;;4970298;28;20026;-58
2023/11/16 20:48:30;;;;;;;9.00;6.68;;;;;;;;;;4964508;28;20026;-58
2023/11/16 20:51:05;;;;;;;8.13;6.03;;;;;;;;;;4954817;28;20034;-59
2023/11/16 20:53:56;;;;;;;9.05;6.57;;;;;;;;;;4968865;28;20434;-59
2023/11/16 20:59:37;;;;;;;11.13;8.30;;;;;;;;;;4965187;28;20037;-59